createdAt,value
2017-09-18T00:00:55.656Z,84.49
2017-09-18T00:01:55.621Z,84.78
2017-09-18T00:02:55.587Z,85.11
2017-09-18T00:03:55.581Z,85.16
2017-09-18T00:04:55.539Z,85.21
2017-09-18T00:05:55.480Z,84.92
2017-09-18T00:06:55.465Z,84.82
2017-09-18T00:07:55.415Z,84.92
2017-09-18T00:08:55.395Z,85.68
2017-09-18T00:09:55.334Z,85.11
2017-09-18T00:10:55.301Z,84.44
2017-09-18T00:11:55.264Z,84.34
2017-09-18T00:12:55.237Z,85.21
2017-09-18T00:13:55.192Z,85.11
2017-09-18T00:14:55.165Z,85.21
2017-09-18T00:15:55.127Z,84.92
2017-09-18T00:16:55.086Z,84.63
2017-09-18T00:17:55.065Z,85.11
2017-09-18T00:18:55.016Z,85.21
2017-09-18T00:19:54.979Z,84.92
2017-09-18T00:20:54.953Z,85.21
2017-09-18T00:21:54.912Z,85.01
2017-09-18T00:22:54.877Z,85.58
2017-09-18T00:23:54.834Z,85.97
2017-09-18T00:24:54.806Z,85.77
2017-09-18T00:25:54.764Z,84.92
2017-09-18T00:26:54.736Z,85.30
2017-09-18T00:27:54.695Z,84.53
2017-09-18T00:28:54.658Z,84.34
2017-09-18T00:29:54.639Z,84.34
2017-09-18T00:30:54.583Z,84.25
2017-09-18T00:31:54.557Z,84.34
2017-09-18T00:32:54.519Z,84.53
2017-09-18T00:33:54.480Z,84.63
2017-09-18T00:34:54.519Z,85.21
2017-09-18T00:35:54.413Z,85.30
2017-09-18T00:36:54.378Z,84.92
2017-09-18T00:37:54.343Z,84.92
2017-09-18T00:38:54.299Z,85.11
2017-09-18T00:39:54.268Z,85.11
2017-09-18T00:40:54.239Z,85.06
2017-09-18T00:41:54.197Z,85.68
2017-09-18T00:42:54.161Z,85.97
2017-09-18T00:43:54.123Z,85.54
2017-09-18T00:44:54.092Z,85.83
2017-09-18T00:45:54.060Z,85.54
2017-09-18T00:46:54.018Z,85.73
2017-09-18T00:47:53.998Z,85.64
2017-09-18T00:48:53.942Z,85.83
2017-09-18T00:49:53.907Z,85.64
2017-09-18T00:50:53.868Z,86.21
2017-09-18T00:51:53.837Z,86.78
2017-09-18T00:52:53.798Z,85.73
2017-09-18T00:53:53.762Z,86.69
2017-09-18T00:54:53.727Z,86.21
2017-09-18T00:55:53.690Z,85.83
2017-09-18T00:56:53.653Z,85.73
2017-09-18T00:57:53.627Z,85.83
2017-09-18T00:58:53.582Z,85.64
2017-09-18T00:59:53.545Z,85.64
2017-09-18T01:00:53.509Z,86.78
2017-09-18T01:01:53.473Z,86.02
2017-09-18T01:02:53.442Z,85.73
2017-09-18T01:03:53.402Z,85.93
2017-09-18T01:04:53.365Z,86.49
2017-09-18T01:05:53.331Z,85.73
2017-09-18T01:06:53.293Z,85.16
2017-09-18T01:07:53.262Z,86.49
2017-09-18T01:08:53.225Z,85.93
2017-09-18T01:09:53.190Z,85.93
2017-09-18T01:10:53.149Z,85.93
2017-09-18T01:11:53.113Z,86.30
2017-09-18T01:12:53.076Z,86.54
2017-09-18T01:13:53.041Z,85.45
2017-09-18T01:14:53.005Z,85.21
2017-09-18T01:15:52.971Z,86.40
2017-09-18T01:16:52.934Z,86.35
2017-09-18T01:17:52.897Z,85.73
2017-09-18T01:18:52.859Z,86.02
2017-09-18T01:19:52.825Z,86.11
2017-09-18T01:20:52.789Z,85.93
2017-09-18T01:21:52.774Z,86.30
2017-09-18T01:22:52.716Z,86.25
2017-09-18T01:23:52.680Z,85.16
2017-09-18T01:24:52.644Z,85.73
2017-09-18T01:25:52.622Z,86.11
2017-09-18T01:26:52.572Z,86.69
2017-09-18T01:27:52.536Z,87.54
2017-09-18T01:28:52.503Z,87.45
2017-09-18T01:29:52.463Z,87.74
2017-09-18T01:30:52.433Z,88.31
2017-09-18T01:31:52.394Z,88.31
2017-09-18T01:32:52.358Z,88.69
2017-09-18T01:33:52.318Z,88.50
2017-09-18T01:34:52.285Z,88.40
2017-09-18T01:35:52.248Z,87.45
2017-09-18T01:36:52.217Z,87.64
2017-09-18T01:37:52.177Z,86.78
2017-09-18T01:38:52.140Z,86.78
2017-09-18T01:39:52.105Z,87.35
2017-09-18T01:40:52.068Z,87.16
2017-09-18T01:41:52.033Z,87.16
2017-09-18T01:42:51.994Z,87.74
2017-09-18T01:43:51.961Z,87.74
2017-09-18T01:44:51.928Z,87.74
2017-09-18T01:45:51.895Z,87.93
2017-09-18T01:46:51.854Z,87.45
2017-09-18T01:47:51.816Z,87.45
2017-09-18T01:48:51.783Z,87.74
2017-09-18T01:49:51.749Z,87.74
2017-09-18T01:50:51.707Z,87.45
2017-09-18T01:51:51.674Z,87.16
2017-09-18T01:52:51.634Z,87.45
2017-09-18T01:53:51.614Z,87.45
2017-09-18T01:54:51.572Z,87.64
2017-09-18T01:55:51.527Z,87.54
2017-09-18T01:56:51.492Z,87.35
2017-09-18T01:57:51.456Z,87.93
2017-09-18T01:58:51.417Z,87.64
2017-09-18T01:59:51.389Z,87.93
2017-09-18T02:00:51.347Z,87.93
2017-09-18T02:01:51.315Z,87.83
2017-09-18T02:02:51.274Z,87.93
2017-09-18T02:03:51.248Z,87.45
2017-09-18T02:04:51.205Z,87.54
2017-09-18T02:05:51.171Z,87.54
2017-09-18T02:06:51.129Z,87.45
2017-09-18T02:07:51.103Z,86.98
2017-09-18T02:08:51.057Z,86.98
2017-09-18T02:09:51.024Z,86.78
2017-09-18T02:10:50.992Z,86.88
2017-09-18T02:11:50.949Z,86.98
2017-09-18T02:12:50.919Z,87.26
2017-09-18T02:13:50.876Z,86.98
2017-09-18T02:14:50.839Z,87.45
2017-09-18T02:15:50.806Z,87.93
2017-09-18T02:16:50.769Z,87.64
2017-09-18T02:17:50.734Z,88.21
2017-09-18T02:18:50.695Z,88.50
2017-09-18T02:19:50.661Z,88.02
2017-09-18T02:20:50.631Z,88.40
2017-09-18T02:21:50.590Z,88.59
2017-09-18T02:22:50.551Z,88.40
2017-09-18T02:23:50.518Z,89.17
2017-09-18T02:24:50.486Z,89.36
2017-09-18T02:25:50.444Z,89.36
2017-09-18T02:26:50.408Z,89.26
2017-09-18T02:27:50.371Z,88.98
2017-09-18T02:28:50.333Z,88.98
2017-09-18T02:29:50.296Z,89.26
2017-09-18T02:30:50.261Z,88.98
2017-09-18T02:31:50.229Z,89.26
2017-09-18T02:32:50.198Z,89.83
2017-09-18T02:33:50.163Z,89.89
2017-09-18T02:34:50.119Z,89.79
2017-09-18T02:35:50.081Z,90.36
2017-09-18T02:36:50.046Z,90.36
2017-09-18T02:37:50.008Z,90.64
2017-09-18T02:38:49.978Z,90.64
2017-09-18T02:39:49.939Z,90.64
2017-09-18T02:40:49.901Z,91.03
2017-09-18T02:41:49.866Z,91.41
2017-09-18T02:42:49.829Z,91.13
2017-09-18T02:43:49.796Z,90.93
2017-09-18T02:44:49.753Z,90.84
2017-09-18T02:45:49.728Z,91.13
2017-09-18T02:46:49.683Z,91.41
2017-09-18T02:47:49.648Z,90.64
2017-09-18T02:48:49.615Z,91.03
2017-09-18T02:49:49.577Z,90.69
2017-09-18T02:50:49.535Z,90.84
2017-09-18T02:51:49.515Z,90.22
2017-09-18T02:52:49.503Z,90.88
2017-09-18T02:53:49.433Z,90.93
2017-09-18T02:54:49.436Z,91.31
2017-09-18T02:55:49.391Z,91.31
2017-09-18T02:56:49.351Z,91.88
2017-09-18T02:57:49.283Z,92.46
2017-09-18T02:58:49.253Z,92.55
2017-09-18T02:59:49.210Z,92.08
2017-09-18T03:00:49.205Z,92.36
2017-09-18T03:01:49.149Z,92.46
2017-09-18T03:02:49.222Z,92.27
2017-09-18T03:03:49.080Z,92.17
2017-09-18T03:04:49.050Z,91.60
2017-09-18T03:05:48.999Z,91.79
2017-09-18T03:06:48.964Z,92.08
2017-09-18T03:07:48.917Z,91.79
2017-09-18T03:08:48.880Z,91.69
2017-09-18T03:09:48.849Z,91.69
2017-09-18T03:10:48.815Z,91.07
2017-09-18T03:11:48.777Z,91.13
2017-09-18T03:12:48.739Z,91.55
2017-09-18T03:13:48.772Z,91.27
2017-09-18T03:14:48.670Z,91.17
2017-09-18T03:15:48.638Z,91.69
2017-09-18T03:16:48.595Z,91.60
2017-09-18T03:17:48.558Z,91.60
2017-09-18T03:18:48.530Z,91.88
2017-09-18T03:19:48.499Z,91.69
2017-09-18T03:20:48.446Z,92.17
2017-09-18T03:21:48.409Z,92.46
2017-09-18T03:22:48.378Z,92.36
2017-09-18T03:23:48.341Z,92.36
2017-09-18T03:24:48.299Z,92.74
2017-09-18T03:25:48.272Z,92.46
2017-09-18T03:26:48.229Z,91.55
2017-09-18T03:27:48.191Z,91.79
2017-09-18T03:28:48.158Z,91.79
2017-09-18T03:29:48.115Z,91.98
2017-09-18T03:30:48.082Z,91.60
2017-09-18T03:31:48.044Z,91.69
2017-09-18T03:32:48.009Z,91.88
2017-09-18T03:33:47.976Z,92.27
2017-09-18T03:34:47.934Z,92.55
2017-09-18T03:35:47.897Z,92.46
2017-09-18T03:36:47.864Z,92.27
2017-09-18T03:37:47.828Z,92.36
2017-09-18T03:38:47.790Z,92.88
2017-09-18T03:39:47.769Z,92.27
2017-09-18T03:40:47.721Z,92.41
2017-09-18T03:41:47.685Z,92.32
2017-09-18T03:42:47.646Z,91.83
2017-09-18T03:43:47.609Z,91.93
2017-09-18T03:44:47.574Z,91.55
2017-09-18T03:45:47.539Z,91.83
2017-09-18T03:46:47.499Z,91.64
2017-09-18T03:47:47.463Z,91.07
2017-09-18T03:48:47.432Z,91.17
2017-09-18T03:49:47.394Z,91.07
2017-09-18T03:50:47.354Z,91.07
2017-09-18T03:51:47.320Z,91.36
2017-09-18T03:52:47.284Z,91.17
2017-09-18T03:53:47.251Z,91.74
2017-09-18T03:54:47.219Z,91.74
2017-09-18T03:55:47.181Z,91.93
2017-09-18T03:56:47.139Z,91.74
2017-09-18T03:57:47.101Z,91.17
2017-09-18T03:58:47.065Z,91.17
2017-09-18T03:59:47.032Z,91.17
2017-09-18T04:00:46.995Z,91.46
2017-09-18T04:01:46.958Z,91.64
2017-09-18T04:02:46.921Z,91.55
2017-09-18T04:03:46.883Z,91.64
2017-09-18T04:04:46.853Z,91.64
2017-09-18T04:05:46.811Z,91.46
2017-09-18T04:06:46.783Z,91.36
2017-09-18T04:07:46.739Z,91.64
2017-09-18T04:08:46.703Z,91.36
2017-09-18T04:09:46.669Z,90.79
2017-09-18T04:10:46.640Z,90.98
2017-09-18T04:11:46.595Z,91.17
2017-09-18T04:12:46.559Z,91.64
2017-09-18T04:13:46.522Z,91.74
2017-09-18T04:14:46.488Z,91.07
2017-09-18T04:15:46.450Z,90.98
2017-09-18T04:16:46.416Z,91.27
2017-09-18T04:17:46.380Z,91.27
2017-09-18T04:18:46.342Z,91.07
2017-09-18T04:19:46.305Z,91.17
2017-09-18T04:20:46.270Z,91.07
2017-09-18T04:21:46.234Z,91.07
2017-09-18T04:22:46.202Z,91.17
2017-09-18T04:23:46.161Z,91.27
2017-09-18T04:24:46.126Z,91.46
2017-09-18T04:25:46.088Z,91.17
2017-09-18T04:26:46.051Z,91.88
2017-09-18T04:27:46.016Z,92.08
2017-09-18T04:28:45.980Z,92.46
2017-09-18T04:29:45.944Z,92.36
2017-09-18T04:30:45.907Z,92.74
2017-09-18T04:31:45.870Z,92.65
2017-09-18T04:32:45.835Z,92.55
2017-09-18T04:33:45.800Z,92.46
2017-09-18T04:34:45.772Z,92.65
2017-09-18T04:35:45.727Z,92.65
2017-09-18T04:36:45.689Z,92.65
2017-09-18T04:37:45.655Z,92.74
2017-09-18T04:38:45.617Z,93.03
2017-09-18T04:39:45.579Z,93.32
2017-09-18T04:40:45.544Z,92.74
2017-09-18T04:41:45.509Z,92.84
2017-09-18T04:42:45.478Z,92.93
2017-09-18T04:43:45.436Z,93.22
2017-09-18T04:44:45.399Z,92.55
2017-09-18T04:45:45.363Z,92.55
2017-09-18T04:46:45.334Z,92.93
2017-09-18T04:47:45.287Z,92.84
2017-09-18T04:48:45.255Z,92.93
2017-09-18T04:49:45.215Z,93.03
2017-09-18T04:50:45.183Z,92.93
2017-09-18T04:51:45.141Z,93.12
2017-09-18T04:52:45.117Z,92.84
2017-09-18T04:53:45.070Z,92.93
2017-09-18T04:54:45.037Z,92.65
2017-09-18T04:55:44.999Z,93.12
2017-09-18T04:56:44.964Z,93.22
2017-09-18T04:57:44.927Z,92.93
2017-09-18T04:58:44.888Z,92.74
2017-09-18T04:59:44.852Z,92.93
2017-09-18T05:00:44.816Z,92.93
2017-09-18T05:01:44.809Z,92.55
2017-09-18T05:02:44.741Z,92.36
2017-09-18T05:03:44.705Z,92.55
2017-09-18T05:04:44.670Z,91.55
2017-09-18T05:05:44.633Z,91.46
2017-09-18T05:06:44.596Z,90.22
2017-09-18T05:07:44.557Z,89.31
2017-09-18T05:08:44.524Z,88.35
2017-09-18T05:09:44.485Z,86.58
2017-09-18T05:10:44.456Z,86.01
2017-09-18T05:11:44.415Z,84.43
2017-09-18T05:12:44.389Z,83.57
2017-09-18T05:13:44.343Z,82.65
2017-09-18T05:14:44.303Z,81.51
2017-09-18T05:15:44.271Z,80.84
2017-09-18T05:16:44.233Z,81.51
2017-09-18T05:17:44.196Z,81.56
2017-09-18T05:18:44.166Z,81.60
2017-09-18T05:19:44.138Z,81.22
2017-09-18T05:20:44.096Z,80.84
2017-09-18T05:21:44.084Z,79.98
2017-09-18T05:22:44.023Z,78.78
2017-09-18T05:23:43.981Z,78.39
2017-09-18T05:24:43.970Z,77.25
2017-09-18T05:25:43.916Z,77.82
2017-09-18T05:26:43.878Z,77.06
2017-09-18T05:27:43.843Z,77.06
2017-09-18T05:28:43.809Z,76.90
2017-09-18T05:29:43.772Z,75.37
2017-09-18T05:30:43.746Z,73.79
2017-09-18T05:31:43.741Z,73.50
2017-09-18T05:32:43.724Z,73.02
2017-09-18T05:33:43.649Z,73.02
2017-09-18T05:34:43.599Z,72.19
2017-09-18T05:35:43.579Z,71.42
2017-09-18T05:36:43.532Z,71.23
2017-09-18T05:37:43.510Z,72.54
2017-09-18T05:38:43.463Z,72.86
2017-09-18T05:39:43.427Z,71.84
2017-09-18T05:40:43.398Z,70.12
2017-09-18T05:41:43.369Z,69.01
2017-09-18T05:42:43.339Z,67.95
2017-09-18T05:43:43.292Z,67.69
2017-09-18T05:44:43.278Z,66.83
2017-09-18T05:45:43.228Z,65.72
2017-09-18T05:46:43.191Z,66.06
2017-09-18T05:47:43.166Z,66.83
2017-09-18T05:48:43.125Z,66.19
2017-09-18T05:49:43.101Z,65.39
2017-09-18T05:50:43.064Z,64.85
2017-09-18T05:51:43.036Z,64.66
2017-09-18T05:52:42.995Z,65.14
2017-09-18T05:53:42.981Z,63.60
2017-09-18T05:54:42.933Z,63.45
2017-09-18T05:55:42.895Z,62.13
2017-09-18T05:56:42.862Z,61.84
2017-09-18T05:57:42.830Z,61.01
2017-09-18T05:58:42.795Z,60.53
2017-09-18T05:59:42.763Z,59.66
2017-09-18T06:00:42.729Z,59.66
2017-09-18T06:01:42.697Z,58.45
2017-09-18T06:02:42.676Z,57.80
2017-09-18T06:03:42.633Z,57.70
2017-09-18T06:04:42.599Z,57.22
2017-09-18T06:05:42.571Z,57.65
2017-09-18T06:06:42.540Z,59.22
2017-09-18T06:07:42.504Z,57.97
2017-09-18T06:08:42.483Z,57.60
2017-09-18T06:09:42.442Z,57.32
2017-09-18T06:10:42.426Z,56.10
2017-09-18T06:11:42.378Z,55.90
2017-09-18T06:12:42.345Z,57.00
2017-09-18T06:13:42.316Z,57.48
2017-09-18T06:14:42.282Z,56.65
2017-09-18T06:15:42.253Z,55.71
2017-09-18T06:16:42.223Z,55.52
2017-09-18T06:17:42.186Z,54.58
2017-09-18T06:18:42.159Z,54.00
2017-09-18T06:19:42.130Z,53.05
2017-09-18T06:20:42.095Z,53.45
2017-09-18T06:21:42.067Z,52.11
2017-09-18T06:22:42.031Z,53.31
2017-09-18T06:23:42.003Z,54.00
2017-09-18T06:24:41.976Z,53.72
2017-09-18T06:25:41.942Z,53.05
2017-09-18T06:26:41.911Z,52.69
2017-09-18T06:27:41.919Z,52.69
2017-09-18T06:28:41.852Z,51.36
2017-09-18T06:29:41.821Z,51.07
2017-09-18T06:30:41.790Z,50.21
2017-09-18T06:31:41.759Z,51.07
2017-09-18T06:32:41.729Z,51.26
2017-09-18T06:33:41.701Z,50.59
2017-09-18T06:34:41.666Z,51.07
2017-09-18T06:35:41.636Z,51.05
2017-09-18T06:36:41.612Z,50.40
2017-09-18T06:37:41.577Z,50.76
2017-09-18T06:38:41.546Z,50.93
2017-09-18T06:39:41.521Z,53.78
2017-09-18T06:40:41.489Z,53.14
2017-09-18T06:41:41.457Z,57.43
2017-09-18T06:42:41.428Z,60.66
2017-09-18T06:43:41.405Z,61.21
2017-09-18T06:44:41.366Z,62.74
2017-09-18T06:45:41.335Z,60.50
2017-09-18T06:46:41.308Z,57.97
2017-09-18T06:47:41.285Z,57.40
2017-09-18T06:48:41.252Z,62.17
2017-09-18T06:49:41.218Z,67.56
2017-09-18T06:50:41.194Z,71.83
2017-09-18T06:51:41.157Z,73.08
2017-09-18T06:52:41.128Z,73.14
2017-09-18T06:53:41.106Z,75.10
2017-09-18T06:54:41.068Z,76.79
2017-09-18T06:55:41.038Z,78.13
2017-09-18T06:56:41.005Z,79.85
2017-09-18T06:57:40.977Z,79.85
2017-09-18T06:58:40.945Z,80.13
2017-09-18T06:59:40.915Z,79.94
2017-09-18T07:00:40.888Z,80.66
2017-09-18T07:01:40.853Z,81.09
2017-09-18T07:02:40.821Z,80.32
2017-09-18T07:03:40.791Z,79.46
2017-09-18T07:04:40.761Z,79.56
2017-09-18T07:05:40.728Z,79.02
2017-09-18T07:06:40.703Z,78.07
2017-09-18T07:07:40.663Z,78.36
2017-09-18T07:08:40.638Z,78.36
2017-09-18T07:09:40.601Z,78.99
2017-09-18T07:10:40.566Z,79.85
2017-09-18T07:11:40.538Z,80.41
2017-09-18T07:12:40.504Z,79.94
2017-09-18T07:13:40.474Z,80.22
2017-09-18T07:14:40.453Z,80.66
2017-09-18T07:15:40.408Z,81.43
2017-09-18T07:16:40.373Z,81.18
2017-09-18T07:17:40.357Z,80.61
2017-09-18T07:18:40.309Z,79.75
2017-09-18T07:19:40.276Z,79.69
2017-09-18T07:20:40.243Z,78.93
2017-09-18T07:21:40.211Z,78.36
2017-09-18T07:22:40.178Z,77.69
2017-09-18T07:23:40.143Z,77.87
2017-09-18T07:24:40.113Z,77.69
2017-09-18T07:25:40.090Z,78.36
2017-09-18T07:26:40.043Z,77.69
2017-09-18T07:27:40.010Z,78.16
2017-09-18T07:28:39.991Z,78.74
2017-09-18T07:29:39.944Z,78.45
2017-09-18T07:30:39.917Z,78.07
2017-09-18T07:31:39.877Z,78.26
2017-09-18T07:32:39.847Z,78.07
2017-09-18T07:33:39.813Z,78.36
2017-09-18T07:34:39.796Z,77.69
2017-09-18T07:35:39.742Z,77.69
2017-09-18T07:36:39.710Z,77.78
2017-09-18T07:37:39.676Z,77.82
2017-09-18T07:38:39.641Z,78.01
2017-09-18T07:39:39.611Z,77.92
2017-09-18T07:40:39.577Z,77.53
2017-09-18T07:41:39.541Z,77.25
2017-09-18T07:42:39.518Z,77.34
2017-09-18T07:43:39.472Z,76.57
2017-09-18T07:44:39.440Z,77.34
2017-09-18T07:45:39.408Z,77.34
2017-09-18T07:46:39.380Z,77.53
2017-09-18T07:47:39.339Z,78.55
2017-09-18T07:48:39.309Z,78.45
2017-09-18T07:49:39.294Z,78.39
2017-09-18T07:50:39.245Z,78.39
2017-09-18T07:51:39.206Z,78.16
2017-09-18T07:52:39.174Z,78.93
2017-09-18T07:53:39.172Z,79.12
2017-09-18T07:54:39.114Z,79.12
2017-09-18T07:55:39.073Z,78.93
2017-09-18T07:56:39.046Z,78.83
2017-09-18T07:57:39.008Z,79.12
2017-09-18T07:58:38.970Z,79.41
2017-09-18T07:59:38.948Z,78.87
2017-09-18T08:00:38.904Z,78.49
2017-09-18T08:01:38.895Z,78.39
2017-09-18T08:02:38.857Z,78.30
2017-09-18T08:03:38.808Z,78.64
2017-09-18T08:04:38.783Z,78.11
2017-09-18T08:05:38.736Z,78.74
2017-09-18T08:06:38.714Z,78.97
2017-09-18T08:07:38.666Z,78.74
2017-09-18T08:08:38.648Z,78.36
2017-09-18T08:09:38.627Z,78.74
2017-09-18T08:10:39.227Z,78.78
2017-09-18T08:11:38.534Z,77.82
2017-09-18T08:12:38.509Z,77.78
2017-09-18T08:13:38.465Z,78.07
2017-09-18T08:14:38.433Z,78.55
2017-09-18T08:15:38.400Z,78.83
2017-09-18T08:16:38.365Z,78.93
2017-09-18T08:17:38.331Z,78.93
2017-09-18T08:18:38.297Z,78.93
2017-09-18T08:19:38.271Z,78.74
2017-09-18T08:20:38.231Z,78.83
2017-09-18T08:21:38.198Z,78.93
2017-09-18T08:22:38.164Z,78.55
2017-09-18T08:23:38.131Z,78.45
2017-09-18T08:24:38.097Z,78.45
2017-09-18T08:25:38.058Z,78.39
2017-09-18T08:26:38.022Z,77.44
2017-09-18T08:27:38.005Z,77.63
2017-09-18T08:28:37.963Z,77.44
2017-09-18T08:29:38.395Z,77.63
2017-09-18T08:30:37.889Z,77.06
2017-09-18T08:31:37.852Z,76.96
2017-09-18T08:32:37.822Z,77.44
2017-09-18T08:33:37.783Z,76.77
2017-09-18T08:34:37.749Z,77.53
2017-09-18T08:35:37.715Z,77.34
2017-09-18T08:36:37.681Z,77.82
2017-09-18T08:37:37.646Z,77.72
2017-09-18T08:38:37.616Z,78.01
2017-09-18T08:39:37.580Z,77.25
2017-09-18T08:40:37.549Z,76.90
2017-09-18T08:41:37.513Z,76.57
2017-09-18T08:42:37.479Z,76.42
2017-09-18T08:43:37.445Z,76.42
2017-09-18T08:44:37.410Z,76.48
2017-09-18T08:45:37.374Z,76.71
2017-09-18T08:46:37.340Z,76.33
2017-09-18T08:47:37.324Z,75.76
2017-09-18T08:48:37.273Z,75.66
2017-09-18T08:49:37.247Z,75.71
2017-09-18T08:50:37.203Z,75.56
2017-09-18T08:51:37.171Z,75.09
2017-09-18T08:52:37.138Z,74.76
2017-09-18T08:53:37.100Z,75.27
2017-09-18T08:54:37.070Z,74.80
2017-09-18T08:55:37.037Z,75.56
2017-09-18T08:56:37.003Z,74.70
2017-09-18T08:57:36.991Z,74.76
2017-09-18T08:58:36.935Z,74.99
2017-09-18T08:59:36.901Z,74.80
2017-09-18T09:00:36.866Z,74.61
2017-09-18T09:01:36.841Z,74.32
2017-09-18T09:02:36.849Z,74.70
2017-09-18T09:03:36.767Z,75.47
2017-09-18T09:04:36.734Z,75.18
2017-09-18T09:05:36.706Z,74.99
2017-09-18T09:06:37.237Z,74.90
2017-09-18T09:07:36.647Z,73.97
2017-09-18T09:08:36.600Z,74.36
2017-09-18T09:09:36.566Z,74.07
2017-09-18T09:10:36.531Z,74.26
2017-09-18T09:11:36.499Z,74.07
2017-09-18T09:12:36.464Z,73.84
2017-09-18T09:13:36.431Z,73.88
2017-09-18T09:14:36.397Z,73.69
2017-09-18T09:15:36.389Z,73.88
2017-09-18T09:16:36.330Z,73.79
2017-09-18T09:17:36.314Z,73.02
2017-09-18T09:18:36.263Z,73.50
2017-09-18T09:19:36.229Z,73.08
2017-09-18T09:20:36.201Z,72.41
2017-09-18T09:21:36.167Z,72.31
2017-09-18T09:22:36.136Z,72.98
2017-09-18T09:23:36.099Z,73.08
2017-09-18T09:24:36.069Z,73.17
2017-09-18T09:25:36.035Z,73.08
2017-09-18T09:26:36.009Z,73.17
2017-09-18T09:27:35.965Z,73.08
2017-09-18T09:28:35.930Z,73.17
2017-09-18T09:29:35.896Z,73.46
2017-09-18T09:30:35.865Z,73.08
2017-09-18T09:31:35.826Z,72.79
2017-09-18T09:32:35.796Z,72.02
2017-09-18T09:33:35.763Z,72.22
2017-09-18T09:34:35.733Z,72.02
2017-09-18T09:35:35.718Z,71.30
2017-09-18T09:36:35.668Z,71.58
2017-09-18T09:37:35.638Z,71.97
2017-09-18T09:38:35.596Z,71.77
2017-09-18T09:39:35.561Z,71.58
2017-09-18T09:40:35.540Z,71.48
2017-09-18T09:41:35.494Z,71.97
2017-09-18T09:42:35.461Z,71.39
2017-09-18T09:43:35.440Z,71.68
2017-09-18T09:44:35.396Z,71.39
2017-09-18T09:45:35.366Z,71.11
2017-09-18T09:46:35.338Z,70.56
2017-09-18T09:47:35.299Z,70.34
2017-09-18T09:48:35.264Z,70.18
2017-09-18T09:49:35.227Z,69.80
2017-09-18T09:50:35.194Z,69.13
2017-09-18T09:51:35.178Z,69.23
2017-09-18T09:52:35.128Z,68.36
2017-09-18T09:53:35.139Z,68.46
2017-09-18T09:54:35.130Z,68.65
2017-09-18T09:55:35.073Z,68.84
2017-09-18T09:56:35.046Z,69.51
2017-09-18T09:57:34.994Z,70.09
2017-09-18T09:58:35.006Z,69.80
2017-09-18T09:59:34.941Z,69.99
2017-09-18T10:00:34.904Z,70.66
2017-09-18T10:01:34.886Z,70.81
2017-09-18T10:02:34.892Z,70.24
2017-09-18T10:03:34.883Z,70.72
2017-09-18T10:04:34.790Z,70.81
2017-09-18T10:05:34.716Z,70.72
2017-09-18T10:06:34.667Z,70.43
2017-09-18T10:07:34.630Z,69.19
2017-09-18T10:08:34.599Z,68.52
2017-09-18T10:09:34.563Z,67.60
2017-09-18T10:10:34.540Z,67.50
2017-09-18T10:11:34.498Z,66.16
2017-09-18T10:12:34.465Z,65.26
2017-09-18T10:13:34.435Z,65.26
2017-09-18T10:14:34.401Z,66.06
2017-09-18T10:15:34.367Z,65.58
2017-09-18T10:16:34.333Z,65.97
2017-09-18T10:17:34.307Z,66.74
2017-09-18T10:18:34.268Z,67.02
2017-09-18T10:19:34.232Z,67.41
2017-09-18T10:20:34.198Z,66.96
2017-09-18T10:21:34.191Z,66.38
2017-09-18T10:22:34.139Z,66.09
2017-09-18T10:23:34.140Z,66.00
2017-09-18T10:24:34.067Z,65.05
2017-09-18T10:25:34.033Z,64.37
2017-09-18T10:26:34.015Z,64.47
2017-09-18T10:27:33.971Z,64.09
2017-09-18T10:28:33.965Z,64.28
2017-09-18T10:29:33.906Z,63.70
2017-09-18T10:30:33.875Z,63.13
2017-09-18T10:31:33.840Z,63.16
2017-09-18T10:32:33.806Z,63.64
2017-09-18T10:33:33.813Z,63.35
2017-09-18T10:34:33.742Z,63.26
2017-09-18T10:35:33.715Z,63.67
2017-09-18T10:36:33.675Z,63.86
2017-09-18T10:37:33.644Z,63.09
2017-09-18T10:38:33.648Z,61.94
2017-09-18T10:39:33.577Z,60.99
2017-09-18T10:40:33.631Z,60.60
2017-09-18T10:41:33.530Z,60.60
2017-09-18T10:42:33.488Z,60.70
2017-09-18T10:43:33.475Z,60.44
2017-09-18T10:44:33.423Z,59.29
2017-09-18T10:45:33.385Z,60.12
2017-09-18T10:46:33.350Z,60.50
2017-09-18T10:47:33.339Z,60.22
2017-09-18T10:48:33.298Z,60.12
2017-09-18T10:49:33.284Z,59.86
2017-09-18T10:50:33.260Z,59.77
2017-09-18T10:51:33.220Z,59.09
2017-09-18T10:52:33.179Z,58.78
2017-09-18T10:53:33.145Z,57.53
2017-09-18T10:54:33.115Z,57.82
2017-09-18T10:55:33.060Z,57.92
2017-09-18T10:56:33.035Z,57.72
2017-09-18T10:57:33.007Z,58.49
2017-09-18T10:58:32.999Z,59.55
2017-09-18T10:59:32.945Z,59.36
2017-09-18T11:00:32.917Z,59.26
2017-09-18T11:01:32.871Z,58.81
2017-09-18T11:02:32.844Z,58.81
2017-09-18T11:03:32.817Z,58.04
2017-09-18T11:04:32.785Z,56.79
2017-09-18T11:05:32.744Z,56.02
2017-09-18T11:06:32.712Z,56.12
2017-09-18T11:07:32.683Z,55.93
2017-09-18T11:08:32.658Z,56.02
2017-09-18T11:09:32.619Z,55.93
2017-09-18T11:10:32.583Z,56.60
2017-09-18T11:11:32.551Z,56.67
2017-09-18T11:12:32.520Z,57.28
2017-09-18T11:13:32.490Z,57.82
2017-09-18T11:14:32.456Z,58.87
2017-09-18T11:15:32.424Z,59.74
2017-09-18T11:16:32.395Z,60.22
2017-09-18T11:17:32.362Z,59.71
2017-09-18T11:18:32.335Z,60.47
2017-09-18T11:19:32.309Z,60.19
2017-09-18T11:20:32.269Z,60.28
2017-09-18T11:21:32.238Z,60.19
2017-09-18T11:22:32.204Z,60.96
2017-09-18T11:23:32.169Z,60.19
2017-09-18T11:24:32.148Z,59.04
2017-09-18T11:25:32.109Z,59.52
2017-09-18T11:26:32.080Z,58.94
2017-09-18T11:27:32.049Z,58.46
2017-09-18T11:28:32.015Z,58.94
2017-09-18T11:29:31.991Z,59.42
2017-09-18T11:30:31.950Z,59.04
2017-09-18T11:31:31.915Z,59.61
2017-09-18T11:32:31.886Z,59.80
2017-09-18T11:33:31.854Z,60.96
2017-09-18T11:34:31.826Z,61.50
2017-09-18T11:35:31.792Z,61.88
2017-09-18T11:36:31.765Z,61.88
2017-09-18T11:37:31.731Z,61.69
2017-09-18T11:38:31.697Z,61.60
2017-09-18T11:39:31.665Z,61.69
2017-09-18T11:40:31.629Z,61.98
2017-09-18T11:41:31.595Z,61.98
2017-09-18T11:42:31.572Z,61.88
2017-09-18T11:43:31.532Z,61.72
2017-09-18T11:44:31.509Z,61.79
2017-09-18T11:45:31.474Z,61.40
2017-09-18T11:46:31.440Z,61.69
2017-09-18T11:47:31.416Z,62.30
2017-09-18T11:48:31.372Z,62.30
2017-09-18T11:49:31.340Z,62.36
2017-09-18T11:50:31.308Z,62.49
2017-09-18T11:51:31.272Z,62.30
2017-09-18T11:52:31.248Z,62.39
2017-09-18T11:53:31.213Z,62.30
2017-09-18T11:54:31.183Z,61.05
2017-09-18T11:55:31.153Z,60.86
2017-09-18T11:56:31.115Z,60.67
2017-09-18T11:57:31.080Z,60.19
2017-09-18T11:58:31.049Z,60.00
2017-09-18T11:59:31.017Z,60.38
2017-09-18T12:00:30.985Z,60.38
2017-09-18T12:01:30.954Z,60.47
2017-09-18T12:02:30.922Z,60.22
2017-09-18T12:03:30.890Z,59.52
2017-09-18T12:04:30.877Z,59.71
2017-09-18T12:05:30.832Z,60.00
2017-09-18T12:08:02.625Z,58.78
2017-09-18T12:09:02.315Z,59.36
2017-09-18T12:10:55.185Z,59.06
2017-09-18T12:11:55.151Z,58.49
2017-09-18T12:13:48.259Z,58.01
2017-09-18T12:14:47.962Z,58.11
2017-09-18T12:16:40.765Z,57.82
2017-09-18T12:17:40.725Z,58.11
2017-09-18T12:19:33.673Z,56.96
2017-09-18T12:20:33.522Z,56.86
2017-09-18T12:22:26.336Z,57.24
2017-09-18T12:23:26.326Z,57.60
2017-09-18T12:25:19.144Z,58.37
2017-09-18T12:26:19.097Z,57.89
2017-09-18T12:28:11.920Z,55.49
2017-09-18T12:29:11.887Z,55.62
2017-09-18T12:31:05.129Z,55.23
2017-09-18T12:32:04.680Z,55.04
2017-09-18T12:33:57.499Z,54.66
2017-09-18T12:34:57.468Z,54.75
2017-09-18T12:36:50.309Z,52.83
2017-09-18T12:37:50.266Z,53.03
2017-09-18T12:39:43.093Z,53.60
2017-09-18T12:40:43.054Z,53.41
2017-09-18T12:42:35.888Z,53.31
2017-09-18T12:43:35.841Z,53.22
2017-09-18T12:45:28.674Z,53.38
2017-09-18T12:46:28.640Z,54.08
2017-09-18T12:48:22.171Z,54.27
2017-09-18T12:49:21.693Z,53.99
2017-09-18T12:51:14.522Z,54.27
2017-09-18T12:52:14.483Z,54.08
2017-09-18T12:54:07.317Z,54.08
2017-09-18T12:55:07.266Z,54.27
2017-09-18T12:57:00.114Z,54.37
2017-09-18T12:58:00.062Z,53.22
2017-09-18T12:59:52.903Z,51.59
2017-09-18T13:00:52.871Z,51.40
2017-09-18T13:02:45.733Z,51.87
2017-09-18T13:03:45.658Z,52.36
2017-09-18T13:05:38.479Z,52.93
2017-09-18T13:06:38.464Z,52.26
2017-09-18T13:08:31.289Z,52.55
2017-09-18T13:09:31.234Z,52.64
2017-09-18T13:11:24.067Z,53.31
2017-09-18T13:12:24.031Z,53.60
2017-09-18T13:14:16.888Z,52.93